Time;durP1;ratioP1;P1;durP2;ratioP2;P2;SDS_P1;SDS_P2;PMS_P1;PMS_P2;Temp;Humidity;BMP_temperature;BMP_pressure;BME280_temperature;BME280_humidity;BME280_pressure;Samples;Min_cycle;Max_cycle;Signal;HPM_P1;HPM_P2
2020/12/15 00:00:05;;;;;;;58.13;32.20;;;;;;;1.81;84.26;101042.25;1774748;79;22389;-71
2020/12/15 00:02:33;;;;;;;58.55;32.73;;;;;;;1.87;84.18;101044.61;1764030;79;21173;-70
2020/12/15 00:05:00;;;;;;;61.02;33.60;;;;;;;1.86;84.08;101039.05;1766592;79;21179;-70
2020/12/15 00:07:29;;;;;;;53.70;30.55;;;;;;;1.84;84.01;101043.67;1772314;79;21436;-70
2020/12/15 00:09:56;;;;;;;59.30;32.90;;;;;;;1.84;83.96;101054.20;1776066;79;22517;-71
2020/12/15 00:12:24;;;;;;;60.98;32.28;;;;;;;1.81;83.97;101054.58;1740784;81;21189;-70
2020/12/15 00:14:51;;;;;;;59.60;32.17;;;;;;;1.81;83.97;101059.38;1762421;80;21184;-70
2020/12/15 00:17:18;;;;;;;65.85;34.35;;;;;;;1.82;83.97;101065.45;1743764;80;21206;-71
2020/12/15 00:19:46;;;;;;;59.73;32.38;;;;;;;1.83;83.93;101065.75;1750745;80;21204;-71
2020/12/15 00:22:13;;;;;;;58.55;32.03;;;;;;;1.81;83.87;101064.64;1771223;79;21362;-71
2020/12/15 00:24:41;;;;;;;64.62;34.43;;;;;;;1.80;83.83;101062.17;1744899;81;21204;-72
2020/12/15 00:27:08;;;;;;;62.83;33.67;;;;;;;1.79;83.83;101067.14;1753511;81;21219;-70
2020/12/15 00:29:36;;;;;;;64.10;34.65;;;;;;;1.80;83.82;101071.39;1775689;79;21589;-70
2020/12/15 00:32:03;;;;;;;62.62;33.85;;;;;;;1.81;83.83;101067.27;1750027;80;21674;-71
2020/12/15 00:34:31;;;;;;;56.18;33.28;;;;;;;1.83;83.82;101067.07;1763016;80;21746;-71
2020/12/15 00:37:01;;;;;;;57.80;32.73;;;;;;;1.88;83.84;101068.16;1758646;80;21204;-71
2020/12/15 00:39:28;;;;;;;57.10;33.28;;;;;;;1.94;83.76;101069.23;1757385;80;21186;-71
2020/12/15 00:41:56;;;;;;;58.48;34.15;;;;;;;1.93;83.64;101067.58;1771513;80;21691;-71
2020/12/15 00:44:24;;;;;;;62.95;34.10;;;;;;;1.92;83.58;101065.95;1781205;80;21219;-71
2020/12/15 00:46:51;;;;;;;53.52;30.35;;;;;;;1.92;83.61;101063.83;1756930;80;22298;-71
2020/12/15 00:49:19;;;;;;;56.05;31.20;;;;;;;1.92;83.56;101066.46;1780486;80;22545;-70
2020/12/15 00:51:48;;;;;;;49.80;29.87;;;;;;;1.87;83.50;101068.32;1757334;80;21671;-71
2020/12/15 00:54:16;;;;;;;52.23;31.12;;;;;;;1.88;83.48;101072.61;1750831;80;21165;-70
2020/12/15 00:56:44;;;;;;;49.85;29.87;;;;;;;1.86;83.49;101074.09;1740522;80;21228;-71
2020/12/15 00:59:13;;;;;;;55.08;31.30;;;;;;;1.86;83.52;101073.28;1765799;79;21195;-71
2020/12/15 01:01:40;;;;;;;56.33;31.70;;;;;;;1.83;83.46;101067.07;1744678;79;21199;-72
2020/12/15 01:04:08;;;;;;;55.90;30.35;;;;;;;1.84;83.46;101071.33;1777988;80;21255;-72
2020/12/15 01:06:36;;;;;;;50.65;27.37;;;;;;;1.83;83.38;101077.61;1766780;79;21228;-72
2020/12/15 01:09:05;;;;;;;52.48;29.85;;;;;;;1.77;83.28;101083.62;1750879;81;21186;-73
2020/12/15 01:11:34;;;;;;;54.45;30.57;;;;;;;1.70;83.36;101074.83;1745447;80;21535;-73
2020/12/15 01:14:06;;;;;;;54.67;30.37;;;;;;;1.70;83.47;101076.14;1747382;80;21191;-73
2020/12/15 01:16:35;;;;;;;52.85;29.67;;;;;;;1.73;83.52;101074.46;1748442;80;21691;-73
2020/12/15 01:19:03;;;;;;;46.90;27.22;;;;;;;1.75;83.50;101077.73;1745852;80;21228;-73
2020/12/15 01:21:33;;;;;;;46.75;26.50;;;;;;;1.73;83.46;101077.09;1722774;83;21147;-73
2020/12/15 01:24:01;;;;;;;43.80;26.20;;;;;;;1.72;83.48;101071.02;1745391;80;21720;-73
2020/12/15 01:26:32;;;;;;;48.20;27.07;;;;;;;1.70;83.43;101072.20;1749975;80;21223;-73
2020/12/15 01:29:00;;;;;;;44.27;25.80;;;;;;;1.67;83.47;101067.30;1739880;80;22721;-72
2020/12/15 01:31:29;;;;;;;46.05;27.30;;;;;;;1.66;83.53;101074.89;1741181;80;21223;-73
2020/12/15 01:34:10;;;;;;;47.17;27.62;;;;;;;1.65;83.55;101067.50;1735301;80;21160;-72
2020/12/15 01:36:55;;;;;;;44.50;25.35;;;;;;;1.64;83.61;101067.16;1749446;80;21681;-72
2020/12/15 01:39:25;;;;;;;44.83;25.23;;;;;;;1.66;83.59;101064.36;1779633;79;21204;-72
2020/12/15 01:41:57;;;;;;;47.62;27.87;;;;;;;1.66;83.55;101067.80;1746211;80;21185;-73
2020/12/15 01:44:25;;;;;;;46.90;28.30;;;;;;;1.62;83.56;101062.60;1749447;80;21628;-72
2020/12/15 01:46:53;;;;;;;45.63;27.37;;;;;;;1.62;83.62;101064.73;1751051;80;21084;-72
2020/12/15 01:49:23;;;;;;;41.95;25.20;;;;;;;1.60;83.57;101065.41;1746754;81;22719;-71
2020/12/15 01:51:52;;;;;;;41.68;24.40;;;;;;;1.56;83.59;101065.97;1734295;82;21196;-72
2020/12/15 01:54:21;;;;;;;39.83;25.50;;;;;;;1.56;83.65;101066.78;1749216;80;21196;-72
2020/12/15 01:56:50;;;;;;;42.48;26.12;;;;;;;1.56;83.63;101070.73;1773556;80;21163;-72
2020/12/15 01:59:20;;;;;;;42.03;25.85;;;;;;;1.55;83.69;101066.48;1744408;81;21203;-72
2020/12/15 02:01:48;;;;;;;47.35;27.98;;;;;;;1.58;83.78;101068.73;1746485;80;21559;-71
2020/12/15 02:04:17;;;;;;;47.98;27.07;;;;;;;1.59;83.77;101067.73;1748045;80;21216;-71
2020/12/15 02:07:04;;;;;;;39.50;26.48;;;;;;;1.69;83.81;101064.80;1751287;79;28599;-69
2020/12/15 02:09:32;;;;;;;40.35;25.40;;;;;;;1.80;83.78;101072.71;1723652;82;21164;-69
2020/12/15 02:12:27;;;;;;;42.77;26.67;;;;;;;1.95;83.64;101073.99;1833452;77;22688;-69
2020/12/15 02:14:55;;;;;;;43.48;27.27;;;;;;;1.93;83.63;101074.16;1793945;79;21634;-69
2020/12/15 02:17:24;;;;;;;43.15;26.87;;;;;;;1.96;83.59;101070.34;1806255;79;21368;-69
2020/12/15 02:20:10;;;;;;;40.50;24.15;;;;;;;1.96;83.50;101062.44;1793087;77;21167;-69
2020/12/15 02:22:40;;;;;;;41.65;25.50;;;;;;;1.97;83.37;101062.75;1781206;79;21116;-69
2020/12/15 02:25:08;;;;;;;41.85;26.10;;;;;;;1.94;83.29;101062.64;1791914;79;21622;-70
2020/12/15 02:27:37;;;;;;;41.18;26.87;;;;;;;1.93;83.27;101058.36;1793131;79;21179;-69
2020/12/15 02:30:06;;;;;;;42.55;27.35;;;;;;;1.93;83.19;101062.81;1777396;79;21563;-70
2020/12/15 02:32:36;;;;;;;49.45;29.92;;;;;;;1.83;83.07;101060.48;1785068;79;21666;-69
2020/12/15 02:35:07;;;;;;;41.37;26.42;;;;;;;1.76;83.08;101062.24;1792635;79;21168;-70
2020/12/15 02:37:35;;;;;;;44.63;27.73;;;;;;;1.73;83.11;101055.52;1771186;79;21586;-71
2020/12/15 02:40:05;;;;;;;42.67;26.42;;;;;;;1.75;83.15;101048.27;1789851;79;21567;-70
2020/12/15 02:42:52;;;;;;;41.10;25.20;;;;;;;1.77;83.15;101045.42;1796695;79;22204;-70
2020/12/15 02:45:22;;;;;;;44.45;26.27;;;;;;;1.76;83.14;101045.94;1802843;79;22405;-70
2020/12/15 02:47:49;;;;;;;37.78;24.00;;;;;;;1.76;83.11;101046.44;1795394;79;21214;-69
2020/12/15 02:50:22;;;;;;;39.27;24.82;;;;;;;1.73;83.06;101048.13;1781285;79;21599;-69
2020/12/15 02:52:51;;;;;;;42.05;25.37;;;;;;;1.73;83.04;101054.71;1800078;79;21124;-69
2020/12/15 02:55:20;;;;;;;47.83;28.50;;;;;;;1.70;83.03;101052.45;1775883;79;22293;-70
2020/12/15 02:57:48;;;;;;;41.13;26.35;;;;;;;1.64;83.02;101054.80;1790354;79;21657;-70
2020/12/15 03:00:20;;;;;;;43.85;26.90;;;;;;;1.55;83.02;101059.89;1794365;79;21155;-70
2020/12/15 03:02:49;;;;;;;39.27;24.35;;;;;;;1.44;83.01;101064.80;1798584;79;21175;-70
2020/12/15 03:05:20;;;;;;;36.55;23.92;;;;;;;1.35;83.10;101066.71;1796881;79;21128;-70
2020/12/15 03:07:48;;;;;;;42.05;25.95;;;;;;;1.33;83.23;101068.73;1764439;79;21190;-70
2020/12/15 03:10:16;;;;;;;40.85;25.97;;;;;;;1.34;83.33;101071.67;1778114;79;21700;-70
2020/12/15 03:12:45;;;;;;;41.23;26.00;;;;;;;1.32;83.42;101062.66;1794358;79;21211;-70
2020/12/15 03:15:15;;;;;;;40.58;24.70;;;;;;;1.32;83.50;101063.97;1794617;79;21701;-70
2020/12/15 03:17:43;;;;;;;41.45;26.00;;;;;;;1.31;83.58;101066.77;1797401;79;21099;-71
2020/12/15 03:20:11;;;;;;;37.88;22.80;;;;;;;1.33;83.62;101061.65;1788347;77;21938;-70
2020/12/15 03:22:42;;;;;;;41.05;25.17;;;;;;;1.37;83.62;101063.41;1802158;79;21626;-70
2020/12/15 03:25:10;;;;;;;46.68;27.58;;;;;;;1.36;83.63;101067.86;1781579;79;21610;-71
2020/12/15 03:27:39;;;;;;;45.95;27.65;;;;;;;1.35;83.62;101064.08;1795672;79;21128;-70
2020/12/15 03:30:08;;;;;;;44.27;27.13;;;;;;;1.33;83.67;101068.73;1783076;79;21187;-69
2020/12/15 03:32:36;;;;;;;42.83;26.90;;;;;;;1.31;83.73;101074.66;1791457;79;21366;-70
2020/12/15 03:35:04;;;;;;;38.90;24.35;;;;;;;1.27;83.77;101070.77;1799446;79;21216;-69
2020/12/15 03:37:32;;;;;;;42.73;26.87;;;;;;;1.28;83.84;101077.66;1782382;79;21128;-70
2020/12/15 03:40:00;;;;;;;41.88;25.10;;;;;;;1.34;83.97;101077.75;1785416;79;21104;-69
2020/12/15 03:42:47;;;;;;;41.20;26.25;;;;;;;1.40;84.04;101086.23;1789296;78;21163;-69
2020/12/15 03:45:17;;;;;;;39.25;24.67;;;;;;;1.45;84.04;101094.91;1779452;79;21205;-70
2020/12/15 03:47:45;;;;;;;37.30;22.32;;;;;;;1.50;84.07;101096.47;1775891;80;21159;-70
2020/12/15 03:50:15;;;;;;;39.30;25.02;;;;;;;1.54;84.04;101097.73;1798737;79;21107;-70
2020/12/15 03:52:43;;;;;;;39.83;25.85;;;;;;;1.60;84.03;101093.55;1773452;79;21100;-70
2020/12/15 03:55:12;;;;;;;42.45;25.57;;;;;;;1.64;84.03;101098.25;1806525;79;21152;-70
2020/12/15 03:57:44;;;;;;;41.53;26.17;;;;;;;1.67;83.96;101098.90;1791255;79;21657;-70
2020/12/15 04:00:24;;;;;;;40.70;24.23;;;;;;;1.73;83.90;101098.97;1828193;77;22616;-69
2020/12/15 04:03:01;;;;;;;40.47;24.60;;;;;;;1.75;83.79;101104.07;1825679;77;22827;-69
2020/12/15 04:05:45;;;;;;;40.90;25.13;;;;;;;1.74;83.70;101105.86;1850099;77;22684;-69
2020/12/15 04:08:13;;;;;;;41.45;25.25;;;;;;;1.63;83.65;101113.75;1818220;78;21172;-70
2020/12/15 04:10:41;;;;;;;41.75;26.25;;;;;;;1.61;83.65;101116.24;1799753;78;22007;-69
2020/12/15 04:13:09;;;;;;;38.85;24.02;;;;;;;1.60;83.71;101114.62;1849153;75;21176;-69
2020/12/15 04:15:38;;;;;;;36.00;22.58;;;;;;;1.66;83.73;101114.39;1856159;77;21147;-69
2020/12/15 04:18:08;;;;;;;38.00;24.87;;;;;;;1.71;83.67;101122.53;1841787;76;21168;-69
2020/12/15 04:20:36;;;;;;;39.83;24.98;;;;;;;1.72;83.65;101123.69;1825998;77;21168;-69
2020/12/15 04:23:04;;;;;;;41.55;25.32;;;;;;;1.74;83.61;101131.39;1817502;78;22205;-70
2020/12/15 04:25:37;;;;;;;38.70;25.45;;;;;;;1.74;83.58;101134.02;1813460;78;21167;-70
2020/12/15 04:28:05;;;;;;;43.00;24.47;;;;;;;1.71;83.52;101133.91;1810117;77;21653;-70
2020/12/15 04:30:33;;;;;;;38.88;25.15;;;;;;;1.68;83.51;101141.34;1836544;77;21120;-69
2020/12/15 04:33:01;;;;;;;43.08;26.75;;;;;;;1.62;83.44;101135.82;1842372;77;21160;-70
2020/12/15 04:35:31;;;;;;;39.15;24.43;;;;;;;1.62;83.50;101133.70;1825520;77;21383;-70
2020/12/15 04:37:58;;;;;;;41.85;25.77;;;;;;;1.58;83.50;101140.30;1830538;78;21183;-69
2020/12/15 04:40:26;;;;;;;36.85;22.22;;;;;;;1.50;83.51;101139.91;1796694;78;21111;-70
2020/12/15 04:42:56;;;;;;;38.35;24.23;;;;;;;1.43;83.58;101139.02;1780117;78;21170;-70
2020/12/15 04:45:23;;;;;;;33.73;22.05;;;;;;;1.38;83.65;101141.36;1848967;77;21351;-69
2020/12/15 04:48:09;;;;;;;37.05;24.05;;;;;;;1.40;83.70;101139.38;1842819;77;22432;-70
2020/12/15 04:50:45;;;;;;;37.15;23.62;;;;;;;1.36;83.75;101143.38;1803777;78;21141;-70
2020/12/15 04:53:13;;;;;;;38.65;24.25;;;;;;;1.35;83.83;101139.09;1803216;79;21145;-70
2020/12/15 04:55:59;;;;;;;37.93;22.35;;;;;;;1.35;83.89;101141.25;1794197;78;21733;-70
2020/12/15 04:58:28;;;;;;;36.08;23.30;;;;;;;1.33;83.92;101145.05;1791569;78;21553;-70
2020/12/15 05:00:56;;;;;;;36.28;23.18;;;;;;;1.30;83.95;101146.73;1751650;78;21354;-71
2020/12/15 05:03:34;;;;;;;40.10;24.47;;;;;;;1.34;84.10;101150.12;1782905;79;22641;-70
2020/12/15 05:06:02;;;;;;;39.75;24.12;;;;;;;1.32;84.17;101152.14;1741817;78;21144;-71
2020/12/15 05:08:30;;;;;;;36.85;23.22;;;;;;;1.34;84.25;101146.17;1758631;80;21998;-71
2020/12/15 05:11:01;;;;;;;34.50;22.13;;;;;;;1.42;84.29;101155.81;1733497;80;21528;-70
2020/12/15 05:13:51;;;;;;;36.53;23.17;;;;;;;1.54;84.27;101158.28;1819733;77;22703;-71
2020/12/15 05:16:19;;;;;;;37.80;23.50;;;;;;;1.55;84.28;101158.63;1805334;79;22383;-69
2020/12/15 05:18:49;;;;;;;35.85;23.45;;;;;;;1.61;84.28;101167.11;1779812;78;21592;-70
2020/12/15 05:21:19;;;;;;;35.58;22.35;;;;;;;1.64;84.20;101162.77;1805474;78;21156;-69
2020/12/15 05:23:54;;;;;;;34.15;22.07;;;;;;;1.69;84.19;101162.74;1816413;78;21184;-70
2020/12/15 05:26:25;;;;;;;33.20;21.10;;;;;;;1.70;84.13;101168.31;1810405;78;21167;-70
2020/12/15 05:29:07;;;;;;;34.58;22.40;;;;;;;1.74;84.09;101162.98;1791161;79;21084;-70
2020/12/15 05:31:40;;;;;;;34.73;22.02;;;;;;;1.78;84.08;101169.55;1784630;79;21429;-70
2020/12/15 05:34:29;;;;;;;33.63;22.50;;;;;;;1.84;83.96;101168.31;1811619;79;22791;-71
2020/12/15 05:37:18;;;;;;;33.47;21.17;;;;;;;1.82;83.92;101173.44;1847218;77;22760;-70
2020/12/15 05:40:02;;;;;;;34.18;21.77;;;;;;;1.75;83.88;101178.63;1735028;77;21230;-70
2020/12/15 05:42:31;;;;;;;32.13;20.88;;;;;;;1.75;83.86;101187.03;1822429;77;22221;-70
2020/12/15 05:44:59;;;;;;;35.85;22.22;;;;;;;1.74;83.81;101183.55;1817637;78;21618;-70
2020/12/15 05:47:27;;;;;;;36.30;22.90;;;;;;;1.75;83.78;101189.66;1786921;79;21122;-71
2020/12/15 05:49:58;;;;;;;33.10;21.30;;;;;;;1.73;83.75;101191.15;1827875;77;21178;-70
2020/12/15 05:52:28;;;;;;;32.17;20.72;;;;;;;1.67;83.65;101189.24;1804362;78;21618;-70
2020/12/15 05:55:07;;;;;;;32.85;20.48;;;;;;;1.58;83.62;101199.55;1808988;78;21534;-70
2020/12/15 05:57:35;;;;;;;31.15;20.27;;;;;;;1.50;83.64;101203.59;1812160;78;21706;-70
2020/12/15 06:00:09;;;;;;;30.82;20.20;;;;;;;1.48;83.70;101204.27;1818810;77;21147;-70
2020/12/15 06:02:40;;;;;;;33.33;22.65;;;;;;;1.47;83.75;101207.41;1846411;77;21133;-69
2020/12/15 06:05:07;;;;;;;33.83;22.13;;;;;;;1.40;83.75;101213.89;1811662;78;21140;-70
2020/12/15 06:07:35;;;;;;;33.73;22.17;;;;;;;1.42;83.87;101216.86;1826882;77;22411;-69
2020/12/15 06:10:04;;;;;;;31.37;19.67;;;;;;;1.39;83.85;101221.98;1814121;78;21179;-71
2020/12/15 06:12:32;;;;;;;32.15;20.95;;;;;;;1.38;83.86;101225.59;1819024;77;21144;-70
2020/12/15 06:15:00;;;;;;;35.43;21.60;;;;;;;1.37;83.87;101230.54;1813501;78;21136;-70
2020/12/15 06:17:27;;;;;;;35.23;21.75;;;;;;;1.31;83.90;101231.25;1814406;78;21607;-69
2020/12/15 06:19:57;;;;;;;29.05;18.70;;;;;;;1.27;83.96;101238.69;1846450;77;21432;-70
2020/12/15 06:22:25;;;;;;;32.33;20.23;;;;;;;1.22;84.04;101241.53;1818347;78;21250;-70
2020/12/15 06:24:57;;;;;;;27.22;18.10;;;;;;;1.17;84.10;101246.02;1808946;78;21165;-70
2020/12/15 06:27:36;;;;;;;33.10;19.75;;;;;;;1.17;84.16;101253.41;1817773;78;21143;-69
2020/12/15 06:30:06;;;;;;;32.83;20.55;;;;;;;1.15;84.27;101253.27;1826611;78;21163;-70
2020/12/15 06:32:33;;;;;;;33.25;21.60;;;;;;;1.14;84.38;101258.22;1804474;78;21366;-69
2020/12/15 06:35:11;;;;;;;31.15;19.70;;;;;;;1.12;84.45;101262.86;1828125;77;21227;-70
2020/12/15 06:37:35;;;;;;;30.15;19.65;;;;;;;1.12;84.55;101263.67;1829187;78;21179;-69
2020/12/15 06:40:05;;;;;;;31.27;19.90;;;;;;;1.17;84.58;101257.87;1824728;77;21116;-69
2020/12/15 06:42:34;;;;;;;30.15;19.60;;;;;;;1.21;84.62;101264.41;1854631;77;21175;-70
2020/12/15 06:45:08;;;;;;;31.95;19.98;;;;;;;1.28;84.72;101265.83;1760601;78;21785;-71
2020/12/15 06:47:35;;;;;;;32.63;19.82;;;;;;;1.34;84.73;101265.11;1812202;78;21156;-70
2020/12/15 06:50:15;;;;;;;33.50;20.82;;;;;;;1.34;84.69;101268.56;1801821;78;21152;-70
2020/12/15 06:52:43;;;;;;;32.35;20.77;;;;;;;1.36;84.73;101269.72;1845921;77;21690;-70
2020/12/15 06:55:10;;;;;;;32.42;20.65;;;;;;;1.38;84.70;101271.65;1812458;78;21176;-70
2020/12/15 06:57:39;;;;;;;32.53;21.00;;;;;;;1.41;84.73;101269.98;1829947;78;21895;-71
2020/12/15 07:00:09;;;;;;;34.75;22.27;;;;;;;1.48;84.78;101270.08;1815564;78;21152;-69
2020/12/15 07:02:37;;;;;;;31.80;19.87;;;;;;;1.56;84.81;101273.46;1813885;77;21168;-69
2020/12/15 07:05:25;;;;;;;32.78;21.20;;;;;;;1.63;84.75;101269.61;1821082;78;21112;-70
2020/12/15 07:07:56;;;;;;;33.70;21.77;;;;;;;1.67;84.70;101275.33;1819712;78;21120;-69
2020/12/15 07:10:27;;;;;;;31.90;21.10;;;;;;;1.72;84.67;101276.43;1812684;78;22346;-69
2020/12/15 07:12:58;;;;;;;31.00;20.48;;;;;;;1.79;84.63;101276.52;1821796;78;21699;-69
2020/12/15 07:15:23;;;;;;;32.53;20.77;;;;;;;1.83;84.58;101281.23;1830016;78;21127;-69
2020/12/15 07:17:51;;;;;;;33.98;21.62;;;;;;;1.83;84.44;101279.11;1813423;78;21206;-70
2020/12/15 07:20:20;;;;;;;34.83;22.93;;;;;;;1.83;84.36;101279.92;1823434;78;21166;-69
2020/12/15 07:22:48;;;;;;;36.35;22.93;;;;;;;1.83;84.29;101286.50;1851053;77;21431;-69
2020/12/15 07:25:16;;;;;;;31.45;20.43;;;;;;;1.85;84.24;101288.47;1802165;79;21192;-70
2020/12/15 07:27:44;;;;;;;32.73;21.85;;;;;;;1.89;84.15;101292.88;1808608;78;21196;-68
2020/12/15 07:30:19;;;;;;;30.72;20.12;;;;;;;1.87;84.08;101293.03;1806139;79;21188;-69
2020/12/15 07:32:47;;;;;;;32.58;20.75;;;;;;;1.80;83.95;101284.23;1818985;77;21167;-70
2020/12/15 07:35:18;;;;;;;31.45;20.12;;;;;;;1.76;83.97;101290.87;1794049;78;22844;-71
2020/12/15 07:37:47;;;;;;;29.48;19.75;;;;;;;1.72;83.95;101284.84;1810115;78;21173;-69
2020/12/15 07:40:17;;;;;;;30.00;19.47;;;;;;;1.78;84.04;101292.02;1694336;77;9999761;-69
2020/12/15 07:43:00;;;;;;;28.42;18.10;;;;;;;1.79;84.02;101291.02;1819337;77;21484;-69
2020/12/15 07:45:31;;;;;;;29.72;20.17;;;;;;;1.80;84.00;101293.45;1794883;79;22115;-70
2020/12/15 07:47:58;;;;;;;28.45;18.70;;;;;;;1.75;83.94;101292.38;1818551;78;21191;-70
2020/12/15 07:50:29;;;;;;;28.98;19.67;;;;;;;1.73;83.94;101295.17;1807714;78;21175;-69
2020/12/15 07:53:10;;;;;;;29.75;19.62;;;;;;;1.76;84.02;101291.37;1821992;77;21301;-69
2020/12/15 07:55:37;;;;;;;30.85;19.67;;;;;;;1.78;84.08;101286.75;1799107;79;21073;-69
2020/12/15 07:58:15;;;;;;;30.15;18.75;;;;;;;1.78;84.08;101290.70;1821857;78;21799;-69
2020/12/15 08:00:42;;;;;;;25.57;16.62;;;;;;;1.79;84.13;101296.28;1815016;78;21199;-69
2020/12/15 08:03:10;;;;;;;27.30;17.87;;;;;;;1.82;84.16;101292.78;1817448;78;21144;-69
2020/12/15 08:05:38;;;;;;;29.95;19.60;;;;;;;1.86;84.14;101295.87;1818023;77;21177;-70
2020/12/15 08:08:05;;;;;;;32.25;20.85;;;;;;;1.92;84.16;101302.23;1797085;78;21208;-69
2020/12/15 08:10:35;;;;;;;29.60;19.40;;;;;;;2.00;84.23;101305.58;1837144;77;22112;-69
2020/12/15 08:13:06;;;;;;;29.82;19.67;;;;;;;2.09;84.24;101301.86;1831259;77;21496;-69
2020/12/15 08:15:42;;;;;;;22.62;15.18;;;;;;;2.13;84.07;101304.13;1814061;78;21662;-69
2020/12/15 08:18:11;;;;;;;27.37;17.95;;;;;;;2.08;84.01;101304.69;1816248;77;21202;-70
2020/12/15 08:20:42;;;;;;;31.77;21.30;;;;;;;2.04;83.99;101310.83;1843748;77;21163;-70
2020/12/15 08:23:13;;;;;;;31.70;21.42;;;;;;;2.06;84.08;101315.39;1835693;77;21237;-70
2020/12/15 08:25:45;;;;;;;30.45;20.25;;;;;;;2.06;84.04;101317.22;1827542;77;21168;-69
2020/12/15 08:31:10;;;;;;;26.93;18.47;;;;;;;2.01;84.02;101316.97;1819460;77;22796;-70
2020/12/15 08:33:38;;;;;;;29.65;19.27;;;;;;;1.96;84.04;101320.12;1792512;77;21147;-69
2020/12/15 08:36:11;;;;;;;29.37;19.52;;;;;;;1.98;84.10;101316.82;1798673;79;22106;-70
2020/12/15 08:38:43;;;;;;;30.25;20.62;;;;;;;2.01;84.11;101319.59;1783004;77;21175;-69
2020/12/15 08:41:15;;;;;;;29.23;17.77;;;;;;;2.03;84.20;101318.39;1791318;79;21167;-70
2020/12/15 08:46:22;;;;;;;25.27;17.67;;;;;;;2.13;84.07;101314.16;1792315;79;22094;-69
2020/12/15 08:48:49;;;;;;;26.70;17.60;;;;;;;2.07;84.06;101317.05;1777138;80;21208;-69
2020/12/15 08:51:17;;;;;;;29.60;19.07;;;;;;;2.05;84.07;101316.91;1766230;80;21436;-69
2020/12/15 08:53:46;;;;;;;28.57;18.60;;;;;;;1.98;84.03;101320.77;1765787;80;21243;-70
2020/12/15 08:56:15;;;;;;;26.23;17.98;;;;;;;1.96;84.15;101317.48;1764493;78;21183;-71
2020/12/15 08:58:43;;;;;;;30.45;20.55;;;;;;;2.02;84.19;101311.50;1750164;80;21644;-72
2020/12/15 09:01:11;;;;;;;29.00;19.20;;;;;;;2.11;84.24;101316.19;1750310;80;21157;-71
2020/12/15 09:03:46;;;;;;;29.60;20.82;;;;;;;2.15;84.19;101316.64;1753417;80;21359;-71
2020/12/15 09:06:13;;;;;;;31.33;20.27;;;;;;;2.21;84.20;101310.64;1755279;80;21193;-71
2020/12/15 09:08:48;;;;;;;27.13;19.10;;;;;;;2.27;84.19;101313.83;1756065;80;21144;-71
2020/12/15 09:11:17;;;;;;;28.25;20.43;;;;;;;2.34;84.06;101309.48;1748847;80;21195;-71
2020/12/15 09:13:58;;;;;;;32.75;21.62;;;;;;;2.35;83.91;101305.84;1750651;81;21176;-71
2020/12/15 09:16:29;;;;;;;31.05;19.85;;;;;;;2.34;83.79;101315.58;1755507;80;21388;-71
2020/12/15 09:18:57;;;;;;;31.82;20.92;;;;;;;2.32;83.79;101313.61;1756419;80;21794;-70
2020/12/15 09:21:24;;;;;;;29.92;19.98;;;;;;;2.31;83.68;101316.45;1753914;80;21648;-70
2020/12/15 09:23:52;;;;;;;29.65;18.87;;;;;;;2.27;83.65;101317.31;1750912;80;21139;-71
2020/12/15 09:26:22;;;;;;;28.15;19.15;;;;;;;2.28;83.66;101316.80;1753551;80;21148;-71
2020/12/15 09:28:49;;;;;;;32.55;21.52;;;;;;;2.22;83.63;101313.08;1754554;80;22345;-72
2020/12/15 09:31:18;;;;;;;33.70;22.27;;;;;;;2.19;83.70;101311.31;1750829;80;21572;-72
2020/12/15 09:33:46;;;;;;;33.78;22.32;;;;;;;2.19;83.81;101312.63;1751911;80;21192;-70
2020/12/15 09:36:15;;;;;;;30.70;19.42;;;;;;;2.19;83.70;101313.44;1747700;80;21828;-73
2020/12/15 09:38:46;;;;;;;30.15;21.15;;;;;;;2.17;83.72;101302.76;1750532;80;21116;-70
2020/12/15 09:41:14;;;;;;;33.90;22.27;;;;;;;2.17;83.78;101303.57;1747136;80;21217;-71
2020/12/15 09:43:41;;;;;;;30.45;19.98;;;;;;;2.19;83.87;101303.41;1716814;83;21239;-70
2020/12/15 09:46:08;;;;;;;29.80;20.20;;;;;;;2.21;83.84;101304.05;1687850;83;21555;-70
2020/12/15 09:48:36;;;;;;;26.52;18.82;;;;;;;2.20;83.83;101305.03;1707923;82;21224;-71
2020/12/15 09:51:03;;;;;;;31.27;21.87;;;;;;;2.21;83.87;101298.78;1694700;82;21203;-70
2020/12/15 09:53:31;;;;;;;27.73;18.50;;;;;;;2.23;83.88;101303.34;1701903;83;21461;-70
2020/12/15 09:55:59;;;;;;;32.90;22.20;;;;;;;2.24;83.94;101302.37;1701392;82;21662;-70
2020/12/15 09:58:28;;;;;;;36.65;23.02;;;;;;;2.25;83.92;101307.95;1701026;82;21216;-70
2020/12/15 10:01:00;;;;;;;31.55;20.75;;;;;;;2.24;83.80;101312.41;1698224;82;21136;-70
2020/12/15 10:03:28;;;;;;;28.27;19.32;;;;;;;2.24;83.80;101304.50;1674028;83;21195;-71
2020/12/15 10:05:56;;;;;;;29.63;19.57;;;;;;;2.25;83.78;101307.44;1706221;82;21811;-71
2020/12/15 10:08:24;;;;;;;34.83;23.05;;;;;;;2.19;83.77;101301.58;1706915;82;21191;-70
2020/12/15 10:10:52;;;;;;;30.82;20.40;;;;;;;2.18;83.86;101302.59;1704362;82;21082;-70
2020/12/15 10:13:19;;;;;;;32.95;21.87;;;;;;;2.26;83.96;101289.30;1704000;82;21651;-70
2020/12/15 10:15:47;;;;;;;29.67;20.68;;;;;;;2.34;83.86;101297.63;1701108;82;21172;-71
2020/12/15 10:18:16;;;;;;;35.40;23.40;;;;;;;2.40;83.83;101298.17;1702457;82;22690;-70
2020/12/15 10:20:45;;;;;;;35.60;23.98;;;;;;;2.39;83.69;101300.51;1704608;82;21225;-70
2020/12/15 10:23:12;;;;;;;35.83;23.40;;;;;;;2.35;83.68;101294.79;1703918;82;21290;-70
2020/12/15 10:25:41;;;;;;;36.50;23.70;;;;;;;2.34;83.68;101298.94;1699627;83;21247;-70
2020/12/15 10:28:10;;;;;;;31.27;21.35;;;;;;;2.34;83.71;101297.12;1714008;82;21154;-70
2020/12/15 10:30:37;;;;;;;40.65;27.27;;;;;;;2.32;83.64;101290.39;1721795;81;21304;-70
2020/12/15 10:33:07;;;;;;;38.83;25.32;;;;;;;2.26;83.67;101292.44;1716633;81;21220;-70
2020/12/15 10:35:34;;;;;;;38.00;24.10;;;;;;;2.26;83.78;101300.34;1705243;83;21130;-70
2020/12/15 10:38:02;;;;;;;36.73;24.90;;;;;;;2.28;83.81;101291.26;1707496;82;21247;-70
2020/12/15 10:40:29;;;;;;;41.30;26.87;;;;;;;2.34;83.79;101297.63;1690759;82;21132;-70
2020/12/15 10:42:57;;;;;;;39.50;26.50;;;;;;;2.38;83.79;101292.29;1710089;82;21216;-69
2020/12/15 10:45:25;;;;;;;41.28;27.05;;;;;;;2.41;83.67;101289.29;1696415;82;21253;-69
2020/12/15 10:47:52;;;;;;;35.38;22.67;;;;;;;2.38;83.46;101293.61;1712845;81;21238;-69
2020/12/15 10:50:20;;;;;;;38.15;24.57;;;;;;;2.37;83.44;101296.41;1716367;81;21208;-69
2020/12/15 10:52:48;;;;;;;39.18;26.93;;;;;;;2.37;83.48;101299.89;1667499;83;21189;-69
2020/12/15 10:55:15;;;;;;;45.05;28.45;;;;;;;2.40;83.46;101302.13;1687031;83;21587;-69
2020/12/15 10:57:42;;;;;;;45.08;29.80;;;;;;;2.46;83.49;101301.40;1692239;82;21191;-68
2020/12/15 11:00:10;;;;;;;41.80;27.15;;;;;;;2.52;83.47;101303.30;1691947;83;21233;-69
2020/12/15 11:02:37;;;;;;;41.77;27.20;;;;;;;2.61;83.43;101305.34;1691054;83;21201;-69
2020/12/15 11:05:05;;;;;;;37.25;24.70;;;;;;;2.62;83.16;101311.42;1693202;83;21216;-69
2020/12/15 11:07:33;;;;;;;43.35;27.87;;;;;;;2.61;83.16;101315.08;1668244;83;21384;-69
2020/12/15 11:10:04;;;;;;;44.65;29.02;;;;;;;2.59;83.09;101313.92;1696001;83;21739;-70
2020/12/15 11:12:32;;;;;;;46.83;29.02;;;;;;;2.55;83.00;101316.62;1689736;83;21087;-68
2020/12/15 11:14:59;;;;;;;41.23;26.33;;;;;;;2.49;82.98;101318.17;1694584;83;21069;-70
2020/12/15 11:17:27;;;;;;;50.55;32.80;;;;;;;2.48;83.00;101319.69;1694989;83;21228;-70
2020/12/15 11:19:55;;;;;;;57.67;36.08;;;;;;;2.47;83.04;101314.92;1692655;83;22695;-70
2020/12/15 11:22:22;;;;;;;56.75;34.88;;;;;;;2.48;83.05;101321.81;1689532;83;21509;-69
2020/12/15 11:24:49;;;;;;;65.75;39.55;;;;;;;2.48;83.07;101320.50;1693539;82;21129;-70
2020/12/15 11:27:18;;;;;;;58.33;35.90;;;;;;;2.45;83.09;101320.87;1690178;83;21085;-69
2020/12/15 11:29:46;;;;;;;54.77;34.60;;;;;;;2.48;83.12;101325.77;1694906;83;21217;-69
2020/12/15 11:32:15;;;;;;;57.50;36.03;;;;;;;2.55;83.20;101327.17;1691501;83;21324;-70
2020/12/15 11:34:43;;;;;;;55.52;34.15;;;;;;;2.60;83.19;101328.77;1692999;83;21173;-70